createdAt,value
2022-08-20T00:02:29.228Z,91.30
2022-08-20T00:05:22.350Z,91.30
2022-08-20T00:08:11.850Z,91.30
2022-08-20T00:11:02.373Z,91.30
2022-08-20T00:13:53.551Z,91.30
2022-08-20T00:16:42.963Z,91.30
2022-08-20T00:19:32.168Z,91.30
2022-08-20T00:22:20.559Z,91.30
2022-08-20T00:25:10.648Z,91.30
2022-08-20T00:28:00.039Z,91.30
2022-08-20T00:30:49.336Z,91.30
2022-08-20T00:33:39.749Z,91.30
2022-08-20T00:36:32.181Z,91.30
2022-08-20T00:39:21.345Z,91.30
2022-08-20T00:42:10.038Z,91.30
2022-08-20T00:44:58.560Z,91.30
2022-08-20T00:47:51.504Z,91.30
2022-08-20T00:50:41.607Z,91.30
2022-08-20T00:53:30.395Z,91.30
2022-08-20T00:56:19.558Z,91.30
2022-08-20T00:59:11.751Z,91.30
2022-08-20T01:02:02.571Z,91.30
2022-08-20T01:04:54.783Z,91.30
2022-08-20T01:07:45.716Z,91.30
2022-08-20T01:10:36.533Z,91.30
2022-08-20T01:13:27.819Z,91.30
2022-08-20T01:16:20.064Z,91.60
2022-08-20T01:19:29.832Z,91.30
2022-08-20T01:22:42.938Z,91.30
2022-08-20T01:25:46.668Z,91.30
2022-08-20T01:28:42.018Z,91.30
2022-08-20T01:31:33.243Z,91.30
2022-08-20T01:34:22.361Z,91.30
2022-08-20T01:37:10.812Z,91.30
2022-08-20T01:39:59.300Z,91.30
2022-08-20T01:42:58.867Z,91.30
2022-08-20T01:45:48.689Z,91.30
2022-08-20T01:48:39.575Z,91.30
2022-08-20T01:51:31.414Z,91.30
2022-08-20T01:54:20.300Z,91.30
2022-08-20T01:57:14.573Z,91.30
2022-08-20T02:00:07.393Z,91.30
2022-08-20T02:02:58.144Z,91.30
2022-08-20T02:05:46.812Z,91.30
2022-08-20T02:08:35.073Z,91.30
2022-08-20T02:11:24.575Z,91.30
2022-08-20T02:14:13.967Z,91.30
2022-08-20T02:17:03.860Z,91.30
2022-08-20T02:19:57.014Z,91.30
2022-08-20T02:22:50.132Z,91.30
2022-08-20T02:25:42.240Z,91.30
2022-08-20T02:28:30.710Z,91.30
2022-08-20T02:31:21.690Z,91.50
2022-08-20T02:34:21.667Z,91.30
2022-08-20T02:37:14.848Z,91.40
2022-08-20T02:40:03.511Z,91.40
2022-08-20T02:42:52.080Z,91.40
2022-08-20T02:45:43.914Z,91.40
2022-08-20T02:48:33.812Z,91.40
2022-08-20T02:51:30.389Z,91.40
2022-08-20T02:54:19.539Z,91.40
2022-08-20T02:57:14.073Z,91.40
2022-08-20T03:00:03.542Z,91.40
2022-08-20T03:02:51.795Z,91.40
2022-08-20T03:05:45.594Z,91.40
2022-08-20T03:08:35.172Z,91.40
2022-08-20T03:11:23.562Z,91.40
2022-08-20T03:14:11.896Z,91.40
2022-08-20T03:16:59.985Z,91.40
2022-08-20T03:19:48.453Z,91.40
2022-08-20T03:22:37.227Z,91.40
2022-08-20T03:25:27.373Z,91.40
2022-08-20T03:28:16.487Z,91.40
2022-08-20T03:31:05.556Z,91.40
2022-08-20T03:33:54.254Z,91.40
2022-08-20T03:36:42.824Z,91.40
2022-08-20T03:39:31.393Z,91.50
2022-08-20T03:42:21.312Z,91.50
2022-08-20T03:45:13.625Z,91.50
2022-08-20T03:48:07.655Z,91.50
2022-08-20T03:50:55.963Z,91.40
2022-08-20T03:53:44.164Z,91.40
2022-08-20T03:56:33.223Z,91.40
2022-08-20T03:59:23.023Z,91.40
2022-08-20T04:02:11.960Z,91.40
2022-08-20T04:05:00.298Z,91.40
2022-08-20T04:07:48.840Z,91.50
2022-08-20T04:10:37.959Z,91.70
2022-08-20T04:13:28.168Z,91.40
2022-08-20T04:16:20.124Z,91.50
2022-08-20T04:19:08.745Z,91.50
2022-08-20T04:21:57.041Z,91.50
2022-08-20T04:24:45.772Z,91.50
2022-08-20T04:27:34.418Z,91.50
2022-08-20T04:30:23.480Z,91.50
2022-08-20T04:33:13.457Z,91.50
2022-08-20T04:36:03.044Z,91.50
2022-08-20T04:38:51.599Z,91.40
2022-08-20T04:41:40.010Z,91.40
2022-08-20T04:44:28.927Z,91.40
2022-08-20T04:47:24.689Z,91.40
2022-08-20T04:50:24.547Z,91.40
2022-08-20T04:53:16.971Z,91.40
2022-08-20T04:56:05.490Z,91.40
2022-08-20T04:58:55.175Z,91.30
2022-08-20T05:01:43.895Z,91.30
2022-08-20T05:04:31.857Z,91.30
2022-08-20T05:07:21.776Z,91.30
2022-08-20T05:10:11.597Z,91.30
2022-08-20T05:12:59.971Z,91.30
2022-08-20T05:15:48.739Z,91.30
2022-08-20T05:18:39.640Z,91.20
2022-08-20T05:21:27.888Z,91.20
2022-08-20T05:24:17.633Z,91.20
2022-08-20T05:27:06.578Z,91.20
2022-08-20T05:29:55.986Z,91.20
2022-08-20T05:32:44.974Z,91.20
2022-08-20T05:35:35.923Z,91.10
2022-08-20T05:38:25.889Z,91.10
2022-08-20T05:41:28.708Z,91.30
2022-08-20T05:44:18.572Z,91.10
2022-08-20T05:47:07.392Z,90.40
2022-08-20T05:49:57.541Z,90.10
2022-08-20T05:52:46.325Z,88.90
2022-08-20T05:55:35.323Z,88.50
2022-08-20T05:58:27.764Z,87.70
2022-08-20T06:01:16.181Z,86.70
2022-08-20T06:04:22.756Z,86.20
2022-08-20T06:07:12.099Z,85.70
2022-08-20T06:10:02.057Z,85.00
2022-08-20T06:12:53.511Z,84.70
2022-08-20T06:15:42.932Z,84.30
2022-08-20T06:18:31.096Z,84.00
2022-08-20T06:21:19.540Z,83.70
2022-08-20T06:24:08.615Z,83.50
2022-08-20T06:26:58.177Z,83.70
2022-08-20T06:29:46.849Z,83.40
2022-08-20T06:32:36.919Z,83.60
2022-08-20T06:35:24.944Z,83.60
2022-08-20T06:38:14.872Z,83.60
2022-08-20T06:41:03.144Z,83.80
2022-08-20T06:43:54.063Z,83.90
2022-08-20T06:46:43.575Z,83.80
2022-08-20T06:49:38.135Z,83.40
2022-08-20T06:52:27.144Z,83.30
2022-08-20T06:55:34.504Z,83.40
2022-08-20T06:58:32.792Z,83.20
2022-08-20T07:01:27.273Z,83.40
2022-08-20T07:04:16.207Z,83.60
2022-08-20T07:07:06.801Z,84.70
2022-08-20T07:10:01.300Z,84.30
2022-08-20T07:12:51.137Z,83.80
2022-08-20T07:15:39.845Z,83.50
2022-08-20T07:18:29.200Z,82.60
2022-08-20T07:21:17.941Z,82.10
2022-08-20T07:24:09.734Z,81.80
2022-08-20T07:26:58.195Z,81.40
2022-08-20T07:30:04.134Z,81.40
2022-08-20T07:32:53.570Z,81.90
2022-08-20T07:35:44.103Z,81.10
2022-08-20T07:38:34.216Z,80.90
2022-08-20T07:41:24.170Z,81.30
2022-08-20T07:44:12.503Z,81.20
2022-08-20T07:47:01.432Z,81.30
2022-08-20T07:49:51.069Z,81.30
2022-08-20T07:52:39.409Z,81.30
2022-08-20T07:55:28.278Z,81.80
2022-08-20T07:58:22.595Z,81.90
2022-08-20T08:01:15.876Z,81.70
2022-08-20T08:04:04.764Z,81.00
2022-08-20T08:06:54.139Z,81.80
2022-08-20T08:09:44.079Z,81.80
2022-08-20T08:12:37.370Z,81.60
2022-08-20T08:15:40.993Z,82.00
2022-08-20T08:18:33.200Z,82.00
2022-08-20T08:21:22.485Z,82.00
2022-08-20T08:24:13.480Z,82.20
2022-08-20T08:27:04.119Z,82.30
2022-08-20T08:29:52.850Z,82.60
2022-08-20T08:33:03.508Z,83.10
2022-08-20T08:35:52.160Z,82.70
2022-08-20T08:38:44.200Z,82.50
2022-08-20T08:41:36.169Z,82.40
2022-08-20T08:44:28.528Z,82.30
2022-08-20T08:47:21.933Z,82.40
2022-08-20T08:50:38.538Z,82.50
2022-08-20T08:53:36.575Z,82.40
2022-08-20T08:56:28.637Z,82.80
2022-08-20T08:59:17.110Z,83.10
2022-08-20T09:02:08.619Z,83.80
2022-08-20T09:04:59.325Z,83.90
2022-08-20T09:07:53.177Z,84.00
2022-08-20T09:10:45.357Z,84.70
2022-08-20T09:13:34.023Z,84.70
2022-08-20T09:16:23.936Z,84.00
2022-08-20T09:19:13.164Z,83.80
2022-08-20T09:22:09.154Z,83.90
2022-08-20T09:24:59.244Z,84.60
2022-08-20T09:27:47.578Z,86.10
2022-08-20T09:30:37.527Z,85.40
2022-08-20T09:33:26.537Z,84.40
2022-08-20T09:36:29.259Z,84.10
2022-08-20T09:39:21.276Z,83.50
2022-08-20T09:42:13.593Z,83.50
2022-08-20T09:45:02.713Z,84.10
2022-08-20T09:47:56.324Z,83.90
2022-08-20T09:50:48.951Z,83.00
2022-08-20T09:53:37.425Z,82.90
2022-08-20T09:56:25.819Z,82.60
2022-08-20T09:59:16.640Z,83.20
2022-08-20T10:02:05.950Z,83.50
2022-08-20T10:04:54.805Z,83.50
2022-08-20T10:07:46.323Z,82.60
2022-08-20T10:10:35.098Z,82.90
2022-08-20T10:13:23.374Z,82.90
2022-08-20T10:16:13.587Z,83.00
2022-08-20T10:19:02.070Z,82.80
2022-08-20T10:21:52.064Z,82.80
2022-08-20T10:24:40.491Z,83.20
2022-08-20T10:27:28.868Z,82.50
2022-08-20T10:30:17.302Z,82.40
2022-08-20T10:33:07.334Z,81.70
2022-08-20T10:35:59.788Z,81.80
2022-08-20T10:38:49.198Z,82.50
2022-08-20T10:41:39.128Z,82.50
2022-08-20T10:44:28.228Z,82.80
2022-08-20T10:47:18.952Z,82.60
2022-08-20T10:50:12.529Z,82.50
2022-08-20T10:53:00.774Z,82.60
2022-08-20T10:55:49.570Z,83.20
2022-08-20T10:58:39.932Z,82.90
2022-08-20T11:01:33.953Z,82.50
2022-08-20T11:04:24.292Z,82.50
2022-08-20T11:07:16.520Z,82.50
2022-08-20T11:10:06.897Z,83.30
2022-08-20T11:12:58.043Z,83.20
2022-08-20T11:15:46.784Z,82.80
2022-08-20T11:18:35.181Z,83.00
2022-08-20T11:21:23.385Z,82.40
2022-08-20T11:24:13.367Z,82.10
2022-08-20T11:27:01.555Z,81.80
2022-08-20T11:29:50.089Z,81.60
2022-08-20T11:32:38.797Z,81.30
2022-08-20T11:35:49.246Z,81.30
2022-08-20T11:38:36.694Z,81.20
2022-08-20T11:41:26.332Z,81.90
2022-08-20T11:44:20.756Z,82.70
2022-08-20T11:47:11.693Z,82.90
2022-08-20T11:50:00.872Z,83.20
2022-08-20T11:52:49.640Z,82.90
2022-08-20T11:55:38.836Z,83.20
2022-08-20T11:58:28.871Z,82.80
2022-08-20T12:01:17.891Z,82.60
2022-08-20T12:04:06.206Z,82.50
2022-08-20T12:06:54.771Z,83.00
2022-08-20T12:09:50.563Z,83.60
2022-08-20T12:12:41.385Z,84.10
2022-08-20T12:15:31.290Z,83.30
2022-08-20T12:18:19.806Z,82.90
2022-08-20T12:21:08.059Z,82.70
2022-08-20T12:23:56.353Z,82.30
2022-08-20T12:26:44.645Z,83.60
2022-08-20T12:29:35.156Z,83.50
2022-08-20T12:32:29.117Z,82.70
2022-08-20T12:35:21.929Z,82.60
2022-08-20T12:38:10.280Z,82.20
2022-08-20T12:40:58.471Z,82.90
2022-08-20T12:43:46.628Z,83.20
2022-08-20T12:46:35.517Z,83.20
2022-08-20T12:49:25.340Z,83.30
2022-08-20T12:52:14.089Z,83.40
2022-08-20T12:55:03.372Z,83.20
2022-08-20T12:57:53.089Z,83.30
2022-08-20T13:00:48.507Z,83.40
2022-08-20T13:03:44.828Z,83.40
2022-08-20T13:06:34.480Z,83.00
2022-08-20T13:09:23.175Z,82.80
2022-08-20T13:12:14.311Z,82.70
2022-08-20T13:15:02.782Z,82.30
2022-08-20T13:17:53.842Z,82.40
2022-08-20T13:20:42.154Z,82.20
2022-08-20T13:23:31.863Z,81.50
2022-08-20T13:26:20.816Z,81.40
2022-08-20T13:29:08.864Z,81.60
2022-08-20T13:31:57.348Z,81.90
2022-08-20T13:34:46.741Z,82.30
2022-08-20T13:37:35.900Z,82.40
2022-08-20T13:40:26.220Z,82.20
2022-08-20T13:43:15.260Z,82.40
2022-08-20T13:46:05.279Z,82.00
2022-08-20T13:48:54.123Z,81.80
2022-08-20T13:51:43.119Z,81.70
2022-08-20T13:54:31.564Z,82.00
2022-08-20T13:57:22.885Z,82.00
2022-08-20T14:00:14.655Z,82.70
2022-08-20T14:03:04.208Z,83.00
2022-08-20T14:05:52.747Z,83.20
2022-08-20T14:08:41.023Z,83.00
2022-08-20T14:11:29.441Z,82.80
2022-08-20T14:14:19.234Z,82.60
2022-08-20T14:17:16.455Z,82.00
2022-08-20T14:20:08.600Z,81.90
2022-08-20T14:22:58.036Z,81.80
2022-08-20T14:25:48.229Z,81.80
2022-08-20T14:28:36.671Z,82.00
2022-08-20T14:31:26.300Z,82.10
2022-08-20T14:34:14.736Z,82.20
2022-08-20T14:37:13.046Z,82.10
2022-08-20T14:40:03.359Z,82.00
2022-08-20T14:42:52.018Z,82.00
2022-08-20T14:45:41.039Z,82.20
2022-08-20T14:48:30.763Z,82.00
2022-08-20T14:51:19.782Z,81.90
2022-08-20T14:54:08.207Z,82.10
2022-08-20T14:57:01.919Z,81.80
2022-08-20T14:59:53.261Z,81.90
2022-08-20T15:02:41.973Z,81.60
2022-08-20T15:05:33.345Z,81.40
2022-08-20T15:08:22.010Z,80.80
2022-08-20T15:11:16.632Z,80.80
2022-08-20T15:14:04.873Z,80.60
2022-08-20T15:16:53.191Z,80.50
2022-08-20T15:19:41.869Z,80.60
2022-08-20T15:22:31.346Z,80.00
2022-08-20T15:25:21.695Z,80.10
2022-08-20T15:28:11.169Z,80.30
2022-08-20T15:30:59.793Z,80.30
2022-08-20T15:33:48.355Z,80.60
2022-08-20T15:36:36.709Z,80.80
2022-08-20T15:39:31.681Z,80.70
2022-08-20T15:42:21.603Z,80.80
2022-08-20T15:45:11.626Z,80.70
2022-08-20T15:48:08.409Z,80.50
2022-08-20T15:51:12.285Z,80.30
2022-08-20T15:54:03.210Z,80.50
2022-08-20T15:57:03.196Z,80.60
2022-08-20T16:00:11.635Z,80.70
2022-08-20T16:03:27.617Z,80.90
2022-08-20T16:06:20.547Z,81.00
2022-08-20T16:09:27.272Z,81.50
2022-08-20T16:12:20.093Z,81.10
2022-08-20T16:15:14.745Z,81.20
2022-08-20T16:18:09.733Z,81.40
2022-08-20T16:21:03.090Z,81.40
2022-08-20T16:23:52.010Z,81.60
2022-08-20T16:26:59.703Z,81.60
2022-08-20T16:29:57.584Z,82.10
2022-08-20T16:32:48.781Z,82.40
2022-08-20T16:35:42.754Z,82.40
2022-08-20T16:38:41.485Z,82.30
2022-08-20T16:41:33.452Z,82.30
2022-08-20T16:44:31.069Z,82.40
2022-08-20T16:47:23.327Z,82.40
2022-08-20T16:50:16.451Z,82.50
2022-08-20T16:53:05.119Z,83.00
2022-08-20T16:55:54.218Z,83.10
2022-08-20T16:58:46.481Z,83.20
2022-08-20T17:01:35.441Z,83.30
2022-08-20T17:04:25.008Z,84.20
2022-08-20T17:07:13.407Z,84.40
2022-08-20T17:10:12.712Z,84.20
2022-08-20T17:13:05.086Z,84.00
2022-08-20T17:15:58.779Z,83.70
2022-08-20T17:18:49.340Z,83.50
2022-08-20T17:21:40.200Z,83.50
2022-08-20T17:24:32.521Z,83.40
2022-08-20T17:27:37.794Z,83.20
2022-08-20T17:30:35.599Z,82.90
2022-08-20T17:33:30.097Z,82.60
2022-08-20T17:36:22.346Z,82.90
2022-08-20T17:39:18.095Z,83.00
2022-08-20T17:42:10.005Z,82.80
2022-08-20T17:45:09.661Z,82.70
2022-08-20T17:48:01.055Z,83.00
2022-08-20T17:50:50.262Z,83.20
2022-08-20T17:53:41.854Z,83.20
2022-08-20T17:56:38.240Z,83.80
2022-08-20T18:00:00.369Z,84.40
2022-08-20T18:02:40.338Z,84.50
2022-08-20T18:05:32.475Z,84.60
2022-08-20T18:08:32.062Z,84.60
2022-08-20T18:11:26.737Z,84.50
2022-08-20T18:14:40.982Z,84.80
2022-08-20T18:18:02.985Z,84.60
2022-08-20T18:21:20.836Z,84.70
2022-08-20T18:24:13.426Z,84.60
2022-08-20T18:27:09.018Z,84.70
2022-08-20T18:30:01.481Z,84.80
2022-08-20T18:32:52.753Z,84.70
2022-08-20T18:35:45.682Z,84.90
2022-08-20T18:38:37.410Z,84.80
2022-08-20T18:41:28.659Z,84.80
2022-08-20T18:44:30.521Z,84.90
2022-08-20T18:47:27.583Z,84.90
2022-08-20T18:50:24.739Z,85.00
2022-08-20T18:53:20.758Z,85.20
2022-08-20T18:56:12.033Z,85.40
2022-08-20T18:59:04.628Z,85.50
2022-08-20T19:01:53.162Z,85.50
2022-08-20T19:04:44.823Z,85.60
2022-08-20T19:07:48.187Z,85.70
2022-08-20T19:10:47.778Z,85.80
2022-08-20T19:13:53.115Z,85.70
2022-08-20T19:16:46.872Z,85.80
2022-08-20T19:19:35.503Z,85.90
2022-08-20T19:22:25.723Z,86.00
2022-08-20T19:25:25.286Z,86.20
2022-08-20T19:28:26.664Z,86.20
2022-08-20T19:31:17.591Z,86.30
2022-08-20T19:34:19.516Z,86.50
2022-08-20T19:37:35.589Z,86.60
2022-08-20T19:40:30.507Z,86.70
2022-08-20T19:43:21.948Z,86.80
2022-08-20T19:46:10.933Z,86.80
2022-08-20T19:49:14.528Z,87.00
2022-08-20T19:52:14.106Z,87.00
2022-08-20T19:55:04.233Z,87.10
2022-08-20T19:57:59.873Z,87.10
2022-08-20T20:00:51.004Z,87.20
2022-08-20T20:03:39.472Z,87.20
2022-08-20T20:06:29.359Z,87.20
2022-08-20T20:09:22.209Z,87.30
2022-08-20T20:12:22.527Z,87.30
2022-08-20T20:15:12.873Z,87.90
2022-08-20T20:18:01.503Z,87.40
2022-08-20T20:20:57.865Z,87.30
2022-08-20T20:23:54.887Z,87.50
2022-08-20T20:26:48.376Z,87.40
2022-08-20T20:29:38.125Z,87.50
2022-08-20T20:32:28.966Z,87.50
2022-08-20T20:35:27.874Z,87.50
2022-08-20T20:38:26.362Z,87.50
2022-08-20T20:41:24.318Z,87.50
2022-08-20T20:44:21.738Z,87.50
2022-08-20T20:47:21.062Z,87.50
2022-08-20T20:50:13.519Z,87.50
2022-08-20T20:53:03.095Z,87.50
2022-08-20T20:55:56.922Z,87.50
2022-08-20T20:58:53.795Z,87.60
2022-08-20T21:01:48.220Z,87.60
2022-08-20T21:04:42.034Z,87.60
2022-08-20T21:07:32.246Z,88.20
2022-08-20T21:10:23.767Z,87.70
2022-08-20T21:13:12.885Z,87.70
2022-08-20T21:16:01.658Z,87.70
2022-08-20T21:18:50.102Z,87.70
2022-08-20T21:21:38.495Z,87.70
2022-08-20T21:24:28.568Z,87.70
2022-08-20T21:27:17.315Z,87.70
2022-08-20T21:30:07.300Z,87.80
2022-08-20T21:32:56.147Z,87.70
2022-08-20T21:35:44.668Z,88.30
2022-08-20T21:38:33.488Z,87.80
2022-08-20T21:41:29.421Z,87.70
2022-08-20T21:44:24.896Z,87.70
2022-08-20T21:47:13.675Z,87.70
2022-08-20T21:50:02.691Z,88.30
2022-08-20T21:52:55.329Z,87.70
2022-08-20T21:55:48.109Z,87.70
2022-08-20T21:58:39.149Z,87.80
2022-08-20T22:01:27.699Z,88.20
2022-08-20T22:04:16.463Z,87.80
2022-08-20T22:07:06.132Z,87.80
2022-08-20T22:09:54.438Z,87.80
2022-08-20T22:12:42.870Z,87.80
2022-08-20T22:15:32.704Z,87.80
2022-08-20T22:18:21.235Z,87.90
2022-08-20T22:21:13.635Z,87.90
2022-08-20T22:24:04.892Z,87.90
2022-08-20T22:26:53.192Z,88.00
2022-08-20T22:29:41.639Z,88.00
2022-08-20T22:32:35.132Z,88.10
2022-08-20T22:35:46.198Z,88.10
2022-08-20T22:38:35.060Z,88.10
2022-08-20T22:41:23.963Z,88.20
2022-08-20T22:44:12.415Z,88.10
2022-08-20T22:47:03.814Z,88.20
2022-08-20T22:49:53.898Z,88.20
2022-08-20T22:52:43.644Z,88.20
2022-08-20T22:55:31.685Z,88.20
2022-08-20T22:58:31.185Z,88.20
2022-08-20T23:01:21.041Z,88.30
2022-08-20T23:04:15.738Z,88.20
2022-08-20T23:07:10.104Z,88.30
2022-08-20T23:10:00.916Z,88.30
2022-08-20T23:12:49.320Z,88.30
2022-08-20T23:15:43.387Z,88.30
2022-08-20T23:18:34.115Z,88.30
2022-08-20T23:21:22.724Z,88.40
2022-08-20T23:24:14.249Z,88.40
2022-08-20T23:27:02.784Z,88.40
2022-08-20T23:29:51.028Z,88.40
2022-08-20T23:32:39.947Z,88.40
2022-08-20T23:35:29.830Z,88.50
2022-08-20T23:38:21.651Z,88.50
2022-08-20T23:41:11.062Z,88.50
2022-08-20T23:43:59.306Z,88.60
2022-08-20T23:46:47.700Z,88.60
2022-08-20T23:49:36.727Z,88.60
2022-08-20T23:52:25.356Z,88.60
2022-08-20T23:55:13.647Z,88.60
2022-08-20T23:58:03.710Z,88.70
